Aérodrome :
LOGIN :

S'inscrire | Disclaimer

   EN    FR    IT 

 










Légende :    VFR   VFR Marginal   IFR   IFR Intensif   IFR Très Intensif
Visi : 
Plafond : 
>= 8 km
>= 3000ft
5 à 8 km
1000 à 3000 ft
1500m à 5 km
500 à 1000 ft
800 à 1500m
200 à 500 ft
< 800m
< 200 ft
Symboles :   Orages  Brouillard  Fortes neiges  Fortes précipitations  Vent > 20 kt
SIGMETs :   Divers  Orages  Givrage  Turbulence  Onde Orograph.  Cendres Volcan.






- Altitude de l'aérodrome : 238 ft
- Code IATA : FAB


EGLF - Farnborough

DERNIER METAR :
  • 251620Z AUTO 30006KT 270V330 9999 NCD 10/03 Q1028

METARs EXPIRÉS :
  • 251550Z AUTO 28006KT 250V330 9999 NCD 11/03 Q1028
  • 251520Z AUTO 30008KT 260V320 9999 NCD 11/02 Q1028
  • 251450Z AUTO 29008KT 9999 NCD 11/02 Q1028
  • 251420Z AUTO 30006KT 250V330 9999 NCD 11/04 Q1028
  • 251350Z AUTO 32008KT 9999 FEW030/// 11/04 Q1028
  • 251320Z AUTO 29006KT 250V350 9999 FEW029/// 11/05 Q1027

TAF TAF EGLF
Valide du 25 à 15h jusqu'au 25 à 23h UTC


251355Z 2515/2523 29007KT 9999 FEW045
ATIS : +44 09063 800 400 (*282)



MET'MAP, la Météo Aéronautique d'un coup d'oeil ! - Copyright ORBIFLY Décembre 2007 - Disclaimer

ORBIFLY MET'MAP TEAM :

Programmation & Développement : Alexandra Zaïnal
Sur une idée originale de : Baudouin d'Aumeries
Assistance à la programmation : Marc-Olivier Méhu
Soutien technique & logistique : Manuel Goepfert

Contact : metmap@orbifly.com




SOURCES & CREDITS :

   NOAA